CheckWX is a tool to help pilots better visualize weather data.  It is not intended as a substitute for an official pre-flight weather briefing.

13:52:38 UTC

KATT METAR
Austin City Airport
Austin, Texas, USA
Current

1 hour ago

KATT 201251Z AUTO VRB04KT 10SM SCT013 BKN023 26/22 A2999 RMK AO2 SLP140 T02610222
Observed
Jul-20 @ 12:51 UTC
Wind
  • Variable at 4 KTS
Visibility
10 SM
Flight Rules
MVFR
Cloud Levels
  • Scattered at 1,300' AGL
  • Broken at 2,300' AGL
Temperature
26°C / 79°F
Dewpoint
22°C / 72°F
Humidity
79%
Altimeter
29.99" Hg
Pressure
1015.62 hPa
Previous

2 hours ago

KATT 201151Z AUTO VRB06KT 10SM BKN018 26/22 A2998 RMK AO2 SLP135 T02560222 10278 20256 53001
Observed
Jul-20 @ 11:51 UTC
Wind
  • Variable at 6 KTS
Visibility
10 SM
Flight Rules
MVFR
Cloud Levels
  • Broken at 1,800' AGL
Temperature
26°C / 79°F
Dewpoint
22°C / 72°F
Humidity
79%
Altimeter
29.98" Hg
Pressure
1015.22 hPa
Previous

3 hours ago

KATT 201051Z AUTO VRB04KT 10SM OVC020 26/22 A2997 RMK AO2 SLP133 T02610217
Observed
Jul-20 @ 10:51 UTC
Wind
  • Variable at 4 KTS
Visibility
10 SM
Flight Rules
MVFR
Cloud Levels
  • Overcast at 2,000' AGL
Temperature
26°C / 79°F
Dewpoint
22°C / 72°F
Humidity
79%
Altimeter
29.97" Hg
Pressure
1014.92 hPa